Wetterdaten: Mai 2009
Datum Temp Feuchte Luftdruck Regen Wind Richtung Sonnenschein UV Solar Windben
01.05.2009 10,9 C 91 % 1022,7 hPa 2,2 l/m 1,1 km/h N-NW 7,93 h 2,0 UV-I 339 W/m 3,2 km/h
02.05.2009 12,9 C 83 % 1026,3 hPa 0,2 l/m 2,5 km/h W-NW 10,00 h 2,6 UV-I 405 W/m 5,2 km/h
03.05.2009 10,5 C 86 % 1022,2 hPa 0,0 l/m 5,2 km/h W-NW 3,25 h 1,7 UV-I 220 W/m 13,7 km/h
04.05.2009 8,1 C 71 % 1023,8 hPa 0,6 l/m 4,9 km/h NW 3,17 h 2,0 UV-I 256 W/m 12,1 km/h
05.05.2009 8,8 C 92 % 1018,3 hPa 4,0 l/m 7,4 km/h S 0,00 h 1,2 UV-I 93 W/m 17,3 km/h
06.05.2009 9,9 C 97 % 1015,5 hPa 10,6 l/m 9,8 km/h S-SW 0,00 h 0,7 UV-I 56 W/m 23,7 km/h
07.05.2009 12,2 C 81 % 1015,5 hPa 0,0 l/m 4,6 km/h S 6,75 h 2,6 UV-I 335 W/m 9,6 km/h
08.05.2009 11,5 C 89 % 1013,7 hPa 4,2 l/m 4,7 km/h S 3,08 h 1,7 UV-I 207 W/m 11,7 km/h
09.05.2009 11,5 C 84 % 1017,6 hPa 0,4 l/m 1,8 km/h S 6,17 h 2,3 UV-I 303 W/m 4,4 km/h
10.05.2009 13,4 C 70 % 1019,3 hPa 0,0 l/m 1,0 km/h O-NO 11,17 h 3,0 UV-I 442 W/m 4,0 km/h
11.05.2009 11,2 C 86 % 1018,9 hPa 1,8 l/m 3,4 km/h N-NO 0,92 h 1,4 UV-I 174 W/m 7,6 km/h
12.05.2009 11,2 C 65 % 1021,8 hPa 0,0 l/m 3,6 km/h N-NO 8,83 h 2,8 UV-I 401 W/m 11,6 km/h
13.05.2009 12,8 C 66 % 1017,6 hPa 0,0 l/m 4,3 km/h SO 5,42 h 2,4 UV-I 303 W/m 11,2 km/h
14.05.2009 13,6 C 62 % 1009,7 hPa 0,0 l/m 8,8 km/h SO 4,75 h 2,1 UV-I 265 W/m 18,9 km/h
15.05.2009 12,6 C 92 % 1007,3 hPa 14,6 l/m 9,0 km/h SO 2,42 h 2,2 UV-I 205 W/m 21,7 km/h
16.05.2009 11,9 C 78 % 1014,4 hPa 1,4 l/m 4,8 km/h S 8,42 h 2,9 UV-I 406 W/m 11,3 km/h
17.05.2009 13,7 C 83 % 1013,5 hPa 0,0 l/m 5,6 km/h S 2,50 h 2,0 UV-I 213 W/m 13,7 km/h
18.05.2009 14,1 C 67 % 1018,7 hPa 0,0 l/m 4,9 km/h S 8,68 h 3,1 UV-I 394 W/m 9,6 km/h
19.05.2009 14,1 C 75 % 1020,9 hPa 1,0 l/m 0,5 km/h S 7,92 h 2,8 UV-I 361 W/m 3,6 km/h
20.05.2009 15,6 C 75 % 1019,5 hPa 0,6 l/m 1,4 km/h N 10,42 h 3,0 UV-I 397 W/m 2,4 km/h
21.05.2009 16,8 C 73 % 1011,9 hPa 0,2 l/m 6,7 km/h NW 5,83 h 2,5 UV-I 291 W/m 15,7 km/h
22.05.2009 11,9 C 79 % 1015,5 hPa 2,4 l/m 2,3 km/h NW 7,42 h 2,8 UV-I 338 W/m 7,2 km/h
23.05.2009 14,5 C 70 % 1019,4 hPa 0,0 l/m 2,2 km/h O-SO 10,67 h 3,8 UV-I 473 W/m 6,0 km/h
24.05.2009 17,1 C 72 % 1018,1 hPa 0,8 l/m 3,0 km/h NW 12,83 h 3,5 UV-I 468 W/m 5,6 km/h
25.05.2009 20,1 C 68 % 1014,9 hPa 0,0 l/m 4,3 km/h SO 11,75 h 3,6 UV-I 453 W/m 11,3 km/h
26.05.2009 17,5 C 74 % 1010,5 hPa 0,8 l/m 8,8 km/h S 5,92 h 3,0 UV-I 304 W/m 19,3 km/h
27.05.2009 12,4 C 67 % 1022,6 hPa 0,0 l/m 5,1 km/h W-NW 6,08 h 2,3 UV-I 311 W/m 16,9 km/h
28.05.2009 12,1 C 78 % 1025,9 hPa 4,2 l/m 8,5 km/h N-NW 3,33 h 1,8 UV-I 187 W/m 19,3 km/h
29.05.2009 13,5 C 64 % 1030,3 hPa 0,0 l/m 6,8 km/h N-NW 7,73 h 3,3 UV-I 396 W/m 14,1 km/h
30.05.2009 13,2 C 77 % 1025,8 hPa 0,0 l/m 4,2 km/h N-NO 5,92 h 2,5 UV-I 295 W/m 8,4 km/h
31.05.2009 16,1 C 74 % 1023,2 hPa 0,0 l/m 5,0 km/h N-NO 8,75 h 2,8 UV-I 386 W/m 11,6 km/h
Min-Datum 09.05.09 29.05.09 15.05.09 17 Tage 01.05.09 - - - - 01.05.09
Min-Zeit 06:10 19:15 19:15 - 01:45 - - - - 01:45
Minimum 2,5 C 38 % 1006,1 hPa - 0,0 km/h - - - - 0,0 km/h
Max-Datum 25.05.09 29.05.09 29.05.09 15.05.09 28.05.09 - 24.05.09 23.05.09 13.05.09 08.05.09
Max-Zeit 16:35 04:55 08:50 21:05 17:20 - 19:45 13:35 13:05 20:25
Maximum 25,8 C 100 % 1032,3 hPa 14,6 l/m 26,3 km/h
N-NW
- 12,75 h 7,2 UV-I 1127 W/m 53,1 km/h
S
Durchschnitt 13,1 C 77 % 1018,6 hPa #50,0 l/m 4,7 km/h S #198:01 h 2,5 UV-I 312 W/m 11,4 km/h

Durchschnitt Minimum Temp.7,3 C
Durchschnitt Maximum Temp.18,6 C